Time;durP1;ratioP1;P1;durP2;ratioP2;P2;SDS_P1;SDS_P2;PMS_P1;PMS_P2;Temp;Humidity;BMP_temperature;BMP_pressure;BME280_temperature;BME280_humidity;BME280_pressure;Samples;Min_cycle;Max_cycle;Signal;HPM_P1;HPM_P2
2022/04/05 00:00:51;;;;;;;10.30;6.97;;;3.70;72.20;;;;;;5007238;28;20208;-58
2022/04/05 00:03:16;;;;;;;9.83;7.20;;;3.70;73.70;;;;;;5003223;28;20176;-57
2022/04/05 00:05:42;;;;;;;9.90;7.13;;;3.70;72.60;;;;;;5006461;28;20353;-57
2022/04/05 00:08:08;;;;;;;10.53;7.13;;;3.70;73.40;;;;;;5002791;28;20240;-57
2022/04/05 00:10:34;;;;;;;12.00;8.20;;;3.70;72.10;;;;;;5003768;28;20208;-58
2022/04/05 00:13:01;;;;;;;9.40;6.90;;;3.70;73.60;;;;;;5006557;28;20243;-58
2022/04/05 00:15:27;;;;;;;9.90;7.00;;;3.70;73.80;;;;;;5007081;28;20443;-57
2022/04/05 00:17:52;;;;;;;9.93;6.90;;;3.70;72.20;;;;;;5002119;28;20610;-58
2022/04/05 00:20:18;;;;;;;10.30;7.73;;;3.70;71.00;;;;;;5003777;28;20234;-59
2022/04/05 00:22:44;;;;;;;11.60;7.77;;;3.70;72.00;;;;;;5006696;28;20227;-58
2022/04/05 00:25:09;;;;;;;11.03;7.00;;;3.60;72.00;;;;;;5010299;28;20183;-59
2022/04/05 00:27:36;;;;;;;10.40;7.40;;;3.60;72.90;;;;;;4986054;28;20173;-59
2022/04/05 00:30:01;;;;;;;10.53;7.80;;;3.60;73.50;;;;;;5010927;28;20253;-58
2022/04/05 00:32:27;;;;;;;9.53;6.90;;;3.60;74.10;;;;;;5008027;28;20922;-58
2022/04/05 00:34:53;;;;;;;9.03;7.10;;;3.60;75.20;;;;;;5011749;28;20245;-57
2022/04/05 00:37:18;;;;;;;11.00;6.80;;;3.60;75.70;;;;;;5000761;28;21958;-58
2022/04/05 00:39:45;;;;;;;11.23;8.00;;;3.60;75.00;;;;;;5011608;28;20269;-57
2022/04/05 00:42:11;;;;;;;9.17;7.00;;;3.60;74.70;;;;;;5007968;28;20195;-57
2022/04/05 00:44:37;;;;;;;13.80;8.23;;;3.60;75.10;;;;;;5005486;28;20522;-58
2022/04/05 00:47:29;;;;;;;11.83;8.20;;;3.70;76.20;;;;;;5008745;28;21070;-58
2022/04/05 00:49:55;;;;;;;10.93;7.80;;;3.60;76.90;;;;;;4998078;28;20443;-58
2022/04/05 00:52:23;;;;;;;10.93;7.37;;;3.70;75.60;;;;;;5005238;28;20578;-58
2022/04/05 00:54:50;;;;;;;9.43;7.13;;;3.70;74.70;;;;;;5005836;28;20801;-57
2022/04/05 00:57:19;;;;;;;10.17;7.20;;;3.70;76.20;;;;;;5012177;28;20445;-57
2022/04/05 00:59:47;;;;;;;11.27;7.37;;;3.70;74.80;;;;;;5005978;28;20474;-58
2022/04/05 01:02:14;;;;;;;9.93;7.00;;;3.60;74.40;;;;;;5004519;28;20482;-58
2022/04/05 01:04:42;;;;;;;10.27;7.13;;;3.60;75.30;;;;;;5005045;28;20990;-57
2022/04/05 01:07:13;;;;;;;10.43;7.77;;;3.70;75.80;;;;;;5008204;28;20445;-58
2022/04/05 01:09:39;;;;;;;9.20;6.93;;;3.70;74.90;;;;;;4991291;28;20475;-58
2022/04/05 01:12:09;;;;;;;11.97;7.60;;;3.70;74.80;;;;;;4993357;28;20447;-57
2022/04/05 01:14:36;;;;;;;12.27;7.37;;;3.70;75.50;;;;;;5007780;28;20446;-58
2022/04/05 01:17:05;;;;;;;10.83;8.00;;;3.60;74.30;;;;;;5008106;28;20463;-58
2022/04/05 01:19:31;;;;;;;10.47;7.03;;;3.60;74.20;;;;;;4989139;28;20606;-58
2022/04/05 01:21:58;;;;;;;11.63;7.70;;;3.60;74.70;;;;;;5009597;28;20473;-58
2022/04/05 01:24:24;;;;;;;14.03;7.00;;;3.60;75.90;;;;;;4990477;28;20436;-57
2022/04/05 01:26:52;;;;;;;10.67;7.90;;;3.70;76.50;;;;;;4992204;28;20446;-58
2022/04/05 01:29:19;;;;;;;15.07;7.53;;;3.70;77.70;;;;;;5003807;28;20548;-58
2022/04/05 01:32:03;;;;;;;10.70;7.47;;;3.70;79.00;;;;;;5008310;28;20527;-57
2022/04/05 01:34:30;;;;;;;13.33;8.40;;;3.70;79.10;;;;;;4994176;28;20427;-58
2022/04/05 01:36:58;;;;;;;13.00;8.10;;;3.70;79.30;;;;;;5005887;28;20476;-58
2022/04/05 01:39:27;;;;;;;12.57;8.50;;;3.70;78.20;;;;;;4988780;28;20455;-58
2022/04/05 01:42:05;;;;;;;16.07;8.83;;;3.70;78.20;;;;;;4992757;28;20455;-59
2022/04/05 01:44:33;;;;;;;11.67;8.43;;;3.60;78.30;;;;;;4988171;28;20439;-58
2022/04/05 01:47:09;;;;;;;10.43;8.00;;;3.60;78.70;;;;;;5009148;28;20433;-57
2022/04/05 01:49:35;;;;;;;10.77;7.93;;;3.60;79.60;;;;;;5006567;28;20876;-58
2022/04/05 01:52:01;;;;;;;11.40;7.73;;;3.60;82.10;;;;;;5010085;28;20461;-58
2022/04/05 01:54:26;;;;;;;13.03;7.87;;;3.60;84.40;;;;;;4988538;28;20435;-58
2022/04/05 01:56:52;;;;;;;12.83;8.27;;;3.70;85.10;;;;;;5000889;28;20192;-57
2022/04/05 01:59:20;;;;;;;11.80;8.13;;;3.70;86.40;;;;;;4988709;28;20689;-59
2022/04/05 02:01:47;;;;;;;11.37;8.30;;;3.70;83.40;;;;;;5004840;28;20256;-57
2022/04/05 02:04:13;;;;;;;11.77;8.23;;;3.70;80.90;;;;;;5007921;28;20427;-56
2022/04/05 02:06:40;;;;;;;11.27;8.33;;;3.70;79.40;;;;;;5009288;28;20450;-58
2022/04/05 02:09:06;;;;;;;15.10;8.00;;;3.70;79.30;;;;;;4987598;28;20565;-58
2022/04/05 02:11:32;;;;;;;13.30;8.60;;;3.70;78.80;;;;;;5008637;28;20459;-58
2022/04/05 02:13:58;;;;;;;11.10;8.20;;;3.60;77.10;;;;;;5003629;28;21359;-58
2022/04/05 02:16:25;;;;;;;11.97;8.60;;;3.60;77.80;;;;;;5005412;28;20511;-58
2022/04/05 02:18:51;;;;;;;13.43;8.07;;;3.60;77.10;;;;;;4990519;28;20443;-58
2022/04/05 02:21:16;;;;;;;13.03;8.47;;;3.60;77.40;;;;;;5002868;28;20463;-58
2022/04/05 02:23:42;;;;;;;12.43;8.90;;;3.60;77.40;;;;;;5007630;28;20199;-59
2022/04/05 02:26:08;;;;;;;11.33;7.80;;;3.60;76.40;;;;;;5008531;28;20179;-57
2022/04/05 02:28:34;;;;;;;14.80;8.97;;;3.60;77.30;;;;;;5006474;28;20234;-57
2022/04/05 02:31:00;;;;;;;13.10;8.10;;;3.60;77.70;;;;;;5006327;28;20470;-58
2022/04/05 02:33:26;;;;;;;12.60;8.20;;;3.60;78.40;;;;;;5005550;28;20449;-57
2022/04/05 02:35:52;;;;;;;10.80;8.60;;;3.60;77.90;;;;;;4998803;28;20189;-57
2022/04/05 02:38:18;;;;;;;14.10;8.80;;;3.60;78.10;;;;;;5009603;28;20445;-57
2022/04/05 02:40:44;;;;;;;16.00;7.57;;;3.60;77.10;;;;;;5003581;28;20479;-58
2022/04/05 02:43:10;;;;;;;12.33;8.70;;;3.60;77.40;;;;;;5006544;28;20526;-58
2022/04/05 02:45:35;;;;;;;15.33;8.40;;;3.60;77.90;;;;;;4998550;28;20181;-56
2022/04/05 02:48:02;;;;;;;17.80;9.20;;;3.60;78.20;;;;;;5006862;28;20649;-57
2022/04/05 02:50:28;;;;;;;12.70;8.50;;;3.60;79.20;;;;;;5007657;28;20212;-58
2022/04/05 02:52:54;;;;;;;16.53;8.70;;;3.60;79.10;;;;;;5006517;28;20446;-58
2022/04/05 02:55:21;;;;;;;12.80;9.03;;;3.60;79.20;;;;;;4982733;28;20447;-58
2022/04/05 02:57:47;;;;;;;11.63;7.73;;;3.60;78.40;;;;;;5001213;28;20270;-60
2022/04/05 03:00:17;;;;;;;12.63;8.83;;;3.60;77.80;;;;;;5000834;28;20967;-59
2022/04/05 03:02:44;;;;;;;15.57;9.23;;;3.60;77.30;;;;;;5001730;28;21209;-58
2022/04/05 03:05:11;;;;;;;12.53;8.97;;;3.60;77.30;;;;;;4999414;28;20436;-59
2022/04/05 03:07:37;;;;;;;12.57;8.43;;;3.60;75.80;;;;;;5006008;28;21168;-58
2022/04/05 03:10:09;;;;;;;13.40;8.90;;;3.60;75.90;;;;;;5006580;28;20470;-57
2022/04/05 03:12:35;;;;;;;11.53;7.50;;;3.60;76.80;;;;;;5008625;28;20434;-57
2022/04/05 03:15:02;;;;;;;11.60;8.97;;;3.60;77.20;;;;;;5002055;28;20439;-57
2022/04/05 03:17:28;;;;;;;14.30;8.60;;;3.60;77.80;;;;;;5003529;28;20439;-58
2022/04/05 03:19:54;;;;;;;12.70;8.13;;;3.60;79.10;;;;;;5008029;28;20467;-57
2022/04/05 03:22:20;;;;;;;12.80;8.60;;;3.60;81.40;;;;;;5008322;28;20661;-58
2022/04/05 03:24:46;;;;;;;11.47;8.10;;;3.50;76.70;;;;;;5004003;28;20198;-57
2022/04/05 03:27:12;;;;;;;13.97;9.30;;;3.60;77.20;;;;;;5006369;28;20505;-58
2022/04/05 03:29:38;;;;;;;14.30;9.60;;;3.60;78.30;;;;;;4989833;28;20502;-59
2022/04/05 03:32:05;;;;;;;13.77;8.77;;;3.60;78.10;;;;;;5003913;28;20533;-59
2022/04/05 03:34:30;;;;;;;14.77;9.10;;;3.60;77.80;;;;;;5005119;28;20530;-58
2022/04/05 03:36:56;;;;;;;12.60;7.90;;;3.70;77.40;;;;;;5004720;28;20876;-58
2022/04/05 03:39:22;;;;;;;10.10;8.10;;;3.70;76.40;;;;;;5006511;28;20214;-59
2022/04/05 03:41:47;;;;;;;15.33;8.90;;;3.70;75.40;;;;;;5005609;28;20242;-58
2022/04/05 03:44:13;;;;;;;15.90;9.37;;;3.70;74.40;;;;;;5006305;28;20727;-58
2022/04/05 03:46:39;;;;;;;13.40;8.70;;;3.60;75.00;;;;;;5004824;28;20188;-58
2022/04/05 03:49:05;;;;;;;12.93;8.20;;;3.60;75.50;;;;;;4997585;28;20258;-58
2022/04/05 03:51:31;;;;;;;11.40;8.43;;;3.60;75.60;;;;;;5006810;28;20677;-57
2022/04/05 03:53:57;;;;;;;14.80;8.80;;;3.60;75.50;;;;;;4998903;28;20226;-56
2022/04/05 03:56:23;;;;;;;14.23;7.97;;;3.60;73.70;;;;;;5003196;28;20451;-57
2022/04/05 03:58:49;;;;;;;13.77;8.70;;;3.60;75.30;;;;;;5005186;28;20948;-56
2022/04/05 04:01:16;;;;;;;19.43;8.20;;;3.70;76.10;;;;;;5004322;28;20979;-58
2022/04/05 04:03:41;;;;;;;10.77;7.80;;;3.70;75.60;;;;;;5015040;28;20970;-57
2022/04/05 04:06:07;;;;;;;15.93;8.70;;;3.70;73.50;;;;;;4994326;28;20439;-58
2022/04/05 04:08:33;;;;;;;13.70;8.27;;;3.60;72.80;;;;;;5004209;28;20172;-57
2022/04/05 04:10:59;;;;;;;12.60;8.07;;;3.60;72.80;;;;;;4997263;28;20232;-57
2022/04/05 04:13:25;;;;;;;14.13;8.30;;;3.60;72.80;;;;;;4986057;28;20177;-58
2022/04/05 04:15:51;;;;;;;11.87;8.20;;;3.60;73.70;;;;;;5006401;28;20465;-58
2022/04/05 04:18:17;;;;;;;13.53;8.47;;;3.60;73.70;;;;;;5001676;28;20920;-58
2022/04/05 04:20:42;;;;;;;11.47;7.50;;;3.60;72.90;;;;;;4981670;28;20310;-58
2022/04/05 04:23:11;;;;;;;13.10;8.70;;;3.60;72.90;;;;;;4999273;28;20438;-58
2022/04/05 04:25:37;;;;;;;15.17;8.80;;;3.60;73.00;;;;;;4991505;28;20176;-58
2022/04/05 04:28:07;;;;;;;14.80;8.43;;;3.50;73.60;;;;;;5004999;28;20434;-59
2022/04/05 04:30:37;;;;;;;11.30;8.50;;;3.50;74.30;;;;;;4999708;28;20470;-57
2022/04/05 04:33:03;;;;;;;14.43;9.23;;;3.50;74.60;;;;;;4993589;28;20467;-59
2022/04/05 04:35:30;;;;;;;13.13;9.63;;;3.50;75.20;;;;;;4978614;28;20458;-59
2022/04/05 04:37:57;;;;;;;12.73;8.50;;;3.50;76.80;;;;;;5003047;28;20493;-59
2022/04/05 04:40:23;;;;;;;13.50;8.70;;;3.50;76.10;;;;;;5003280;28;20470;-60
2022/04/05 04:42:49;;;;;;;15.03;8.40;;;3.50;77.10;;;;;;4984762;28;21216;-58
2022/04/05 04:45:14;;;;;;;11.93;8.60;;;3.50;76.40;;;;;;4997062;28;20197;-58
2022/04/05 04:47:41;;;;;;;14.47;9.53;;;3.40;75.90;;;;;;4999660;28;20618;-58
2022/04/05 04:50:08;;;;;;;12.40;9.30;;;3.40;76.90;;;;;;4997688;28;20185;-59
2022/04/05 04:52:34;;;;;;;13.20;9.07;;;3.40;76.70;;;;;;5004036;28;20803;-60
2022/04/05 04:55:00;;;;;;;14.10;8.50;;;3.50;76.80;;;;;;5002306;28;20453;-59
2022/04/05 04:57:26;;;;;;;10.97;7.97;;;3.50;77.20;;;;;;5006921;28;20458;-58
2022/04/05 04:59:53;;;;;;;12.03;8.33;;;3.50;76.90;;;;;;5007726;28;20461;-58
2022/04/05 05:02:22;;;;;;;12.33;8.80;;;3.50;76.00;;;;;;4999957;28;20810;-59
2022/04/05 05:04:48;;;;;;;17.57;9.73;;;3.50;75.40;;;;;;4995464;28;20802;-59
2022/04/05 05:07:14;;;;;;;11.63;8.67;;;3.50;74.80;;;;;;5010329;28;20422;-59
2022/04/05 05:09:41;;;;;;;12.93;8.40;;;3.50;75.20;;;;;;5005972;28;20435;-57
2022/04/05 05:12:07;;;;;;;15.23;8.57;;;3.50;75.40;;;;;;5008225;28;20462;-56
2022/04/05 05:14:33;;;;;;;15.20;9.43;;;3.50;76.30;;;;;;5007071;28;20435;-58
2022/04/05 05:16:58;;;;;;;13.97;8.57;;;3.50;76.40;;;;;;4997582;28;21046;-57
2022/04/05 05:19:24;;;;;;;11.93;8.20;;;3.50;76.00;;;;;;5005576;28;20263;-58
2022/04/05 05:21:50;;;;;;;12.30;8.33;;;3.40;76.80;;;;;;5009238;28;20598;-57
2022/04/05 05:24:15;;;;;;;12.83;8.63;;;3.50;76.70;;;;;;5010507;28;20598;-59
2022/04/05 05:26:41;;;;;;;12.57;8.30;;;3.50;76.30;;;;;;5007876;28;20670;-58
2022/04/05 05:29:07;;;;;;;12.27;8.47;;;3.50;77.20;;;;;;5009541;28;20773;-58
2022/04/05 05:31:32;;;;;;;11.87;7.87;;;3.50;77.10;;;;;;5007003;28;20723;-57
2022/04/05 05:33:58;;;;;;;13.30;8.90;;;3.50;76.00;;;;;;5003060;28;20274;-59
2022/04/05 05:36:23;;;;;;;10.70;7.80;;;3.60;75.80;;;;;;4993671;28;20245;-58
2022/04/05 05:38:49;;;;;;;12.57;8.63;;;3.60;75.70;;;;;;5011566;28;20255;-57
2022/04/05 05:41:15;;;;;;;11.70;7.13;;;3.60;75.20;;;;;;5001219;28;20199;-57
2022/04/05 05:43:45;;;;;;;15.10;9.00;;;3.60;74.20;;;;;;5011384;28;20175;-58
2022/04/05 05:46:11;;;;;;;13.90;8.23;;;3.60;74.70;;;;;;4985216;28;20176;-58
2022/04/05 05:48:37;;;;;;;12.70;8.07;;;3.60;74.40;;;;;;4993469;28;20407;-59
2022/04/05 05:51:03;;;;;;;15.63;8.53;;;3.60;74.40;;;;;;4992381;28;20600;-58
2022/04/05 05:53:28;;;;;;;13.27;9.07;;;3.70;74.20;;;;;;4990727;28;20173;-58
2022/04/05 05:55:54;;;;;;;14.30;8.20;;;3.70;74.40;;;;;;5006409;28;20183;-58
2022/04/05 05:58:20;;;;;;;12.90;8.47;;;3.70;74.20;;;;;;5007233;28;20196;-58
2022/04/05 06:00:45;;;;;;;12.70;8.10;;;3.70;74.60;;;;;;5011038;28;20857;-57
2022/04/05 06:03:11;;;;;;;12.63;7.63;;;3.70;74.70;;;;;;5028680;28;20636;-57
2022/04/05 06:05:37;;;;;;;12.43;8.37;;;3.70;75.20;;;;;;5000593;28;20204;-58
2022/04/05 06:08:04;;;;;;;11.90;7.70;;;3.70;74.70;;;;;;4989522;28;20228;-57
2022/04/05 06:10:30;;;;;;;12.03;7.83;;;3.70;74.70;;;;;;5001557;28;21054;-59
2022/04/05 06:12:57;;;;;;;9.93;7.60;;;3.80;75.00;;;;;;5011506;28;20924;-58
2022/04/05 06:15:25;;;;;;;12.30;8.10;;;3.80;74.50;;;;;;5004571;28;20426;-57
2022/04/05 06:17:51;;;;;;;12.00;8.53;;;3.80;74.50;;;;;;5008605;28;20478;-58
2022/04/05 06:20:19;;;;;;;14.37;8.80;;;3.80;74.80;;;;;;5010026;28;20562;-59
2022/04/05 06:22:44;;;;;;;15.10;8.43;;;3.80;74.20;;;;;;5010927;28;20407;-58
2022/04/05 06:25:11;;;;;;;13.40;7.57;;;3.80;75.30;;;;;;5002570;28;20438;-58
2022/04/05 06:27:38;;;;;;;12.00;8.40;;;3.80;75.80;;;;;;5010862;28;20168;-58
2022/04/05 06:30:05;;;;;;;16.03;8.07;;;3.80;76.20;;;;;;5009956;28;20427;-58
2022/04/05 06:32:31;;;;;;;11.73;7.60;;;3.80;76.60;;;;;;5000022;28;20428;-58
2022/04/05 06:34:57;;;;;;;10.23;7.73;;;3.80;76.70;;;;;;5001783;28;20442;-58
2022/04/05 06:37:22;;;;;;;11.67;8.20;;;3.80;77.60;;;;;;5012535;28;20419;-58
2022/04/05 06:39:48;;;;;;;11.07;7.77;;;3.80;77.90;;;;;;5009898;28;20192;-57
2022/04/05 06:42:14;;;;;;;11.57;7.77;;;3.80;78.40;;;;;;5000225;28;20292;-58
2022/04/05 06:44:40;;;;;;;14.37;8.87;;;3.80;79.60;;;;;;5003463;28;20177;-58
2022/04/05 06:47:06;;;;;;;15.00;7.77;;;3.80;79.60;;;;;;5009321;28;20180;-58
2022/04/05 06:49:32;;;;;;;13.90;8.00;;;3.80;80.60;;;;;;4987466;28;20189;-58
2022/04/05 06:51:58;;;;;;;10.93;7.13;;;3.90;80.80;;;;;;5003890;28;20538;-59
2022/04/05 06:54:24;;;;;;;12.33;8.00;;;3.90;81.10;;;;;;5010141;28;20502;-58
2022/04/05 06:56:50;;;;;;;10.40;7.47;;;3.90;81.70;;;;;;5004910;28;20529;-58
2022/04/05 06:59:15;;;;;;;12.13;8.73;;;3.90;82.20;;;;;;4991877;28;20275;-57
2022/04/05 07:01:41;;;;;;;14.27;9.60;;;3.80;82.70;;;;;;5005782;28;20358;-57
2022/04/05 07:04:06;;;;;;;13.23;7.90;;;3.80;82.80;;;;;;5008883;28;20200;-58
2022/04/05 07:06:32;;;;;;;16.77;8.43;;;3.90;84.60;;;;;;5009178;28;20184;-58
2022/04/05 07:08:58;;;;;;;12.37;7.97;;;3.90;84.60;;;;;;5010410;28;20169;-57
2022/04/05 07:11:24;;;;;;;17.73;8.80;;;3.90;84.20;;;;;;5003826;28;21010;-58
2022/04/05 07:13:51;;;;;;;11.83;7.87;;;3.80;84.90;;;;;;5009825;28;20187;-58
2022/04/05 07:16:18;;;;;;;12.97;8.57;;;3.80;84.50;;;;;;5008952;28;20203;-57
2022/04/05 07:18:44;;;;;;;14.60;8.30;;;3.90;86.60;;;;;;5002801;28;20435;-57
2022/04/05 07:21:11;;;;;;;16.37;8.70;;;3.90;87.30;;;;;;5008029;28;20521;-58
2022/04/05 07:23:37;;;;;;;13.60;8.47;;;3.90;87.00;;;;;;5009360;28;20418;-58
2022/04/05 07:26:03;;;;;;;12.90;7.77;;;3.90;86.10;;;;;;5007432;28;20522;-58
2022/04/05 07:28:29;;;;;;;19.40;9.03;;;3.90;86.30;;;;;;5029568;28;20240;-58
2022/04/05 07:30:55;;;;;;;17.17;10.10;;;4.00;85.20;;;;;;5008759;28;20455;-58
2022/04/05 07:33:20;;;;;;;16.87;9.30;;;4.00;88.00;;;;;;5001762;28;20252;-58
2022/04/05 07:35:46;;;;;;;10.57;8.10;;;4.10;87.30;;;;;;5006763;28;20764;-59
2022/04/05 07:38:12;;;;;;;13.77;8.87;;;4.20;84.80;;;;;;5009836;28;20267;-59
2022/04/05 07:40:47;;;;;;;14.00;8.30;;;4.30;83.10;;;;;;4998341;28;20748;-58
2022/04/05 07:43:18;;;;;;;11.87;8.27;;;4.30;83.00;;;;;;5010127;28;20415;-58
2022/04/05 07:45:44;;;;;;;14.10;8.03;;;4.30;81.10;;;;;;5007743;28;20423;-58
2022/04/05 07:48:11;;;;;;;12.00;7.90;;;4.40;80.40;;;;;;4985170;28;20446;-58
2022/04/05 07:50:37;;;;;;;12.33;8.00;;;4.40;78.60;;;;;;4999608;28;20461;-57
2022/04/05 07:53:02;;;;;;;13.37;7.33;;;4.40;78.10;;;;;;5010330;28;20801;-60
2022/04/05 07:55:28;;;;;;;16.30;8.80;;;4.40;77.90;;;;;;5007192;28;20544;-58
2022/04/05 07:57:54;;;;;;;15.10;8.07;;;4.40;78.20;;;;;;5007247;28;20184;-58
2022/04/05 08:00:20;;;;;;;12.00;8.07;;;4.50;78.20;;;;;;5009933;28;20708;-57
2022/04/05 08:02:46;;;;;;;12.13;7.97;;;4.50;78.80;;;;;;5009786;28;20164;-58
2022/04/05 08:05:12;;;;;;;17.30;7.73;;;4.60;75.10;;;;;;5007160;28;20796;-57
2022/04/05 08:07:38;;;;;;;11.00;7.90;;;4.60;74.60;;;;;;4992055;28;20187;-58
2022/04/05 08:10:04;;;;;;;13.30;7.80;;;4.60;74.60;;;;;;4996221;28;20422;-55
2022/04/05 08:12:42;;;;;;;12.77;7.90;;;4.70;73.30;;;;;;4991970;28;20276;-58
2022/04/05 08:15:09;;;;;;;11.30;6.83;;;4.70;70.80;;;;;;5005185;28;20443;-59
2022/04/05 08:17:35;;;;;;;13.87;7.57;;;4.70;70.50;;;;;;5013596;28;20445;-58
2022/04/05 08:20:01;;;;;;;14.73;8.50;;;4.80;69.70;;;;;;4990415;28;20829;-58
2022/04/05 08:22:26;;;;;;;19.10;8.07;;;4.90;68.60;;;;;;4989974;28;20419;-58
2022/04/05 08:24:52;;;;;;;13.10;7.77;;;4.90;68.10;;;;;;5006001;28;20203;-58
2022/04/05 08:27:17;;;;;;;11.50;7.00;;;5.00;68.10;;;;;;5009000;28;20191;-57
2022/04/05 08:29:43;;;;;;;10.00;7.00;;;5.00;66.60;;;;;;4999865;28;20207;-57
2022/04/05 08:32:09;;;;;;;16.20;8.07;;;5.10;66.30;;;;;;5002229;28;20283;-58
2022/04/05 08:34:38;;;;;;;15.30;7.87;;;5.20;65.40;;;;;;5008369;28;20705;-57
2022/04/05 08:37:04;;;;;;;8.60;7.07;;;5.20;64.80;;;;;;5007718;28;20430;-58
2022/04/05 08:39:29;;;;;;;10.57;7.53;;;5.20;64.70;;;;;;5006400;28;20844;-57
2022/04/05 08:41:56;;;;;;;11.80;7.50;;;5.20;64.90;;;;;;5007572;28;20209;-58
2022/04/05 08:44:23;;;;;;;12.33;7.00;;;5.30;64.90;;;;;;4992797;28;20191;-58
2022/04/05 08:46:51;;;;;;;11.67;7.47;;;5.40;64.50;;;;;;5001351;28;20422;-57
2022/04/05 08:49:18;;;;;;;15.10;7.90;;;5.50;64.60;;;;;;4994983;28;20426;-58
2022/04/05 08:51:44;;;;;;;11.00;7.37;;;5.60;64.20;;;;;;5010175;28;20501;-58
2022/04/05 08:54:10;;;;;;;12.30;7.10;;;5.70;63.50;;;;;;4994849;28;20897;-58
2022/04/05 08:56:35;;;;;;;9.60;6.27;;;5.80;62.80;;;;;;4999219;28;20590;-57
2022/04/05 08:59:01;;;;;;;9.60;6.10;;;5.90;61.90;;;;;;5012259;28;20196;-57
2022/04/05 09:01:30;;;;;;;10.80;7.47;;;5.90;62.00;;;;;;5011361;28;20558;-57
2022/04/05 09:03:56;;;;;;;10.80;6.83;;;6.00;62.10;;;;;;4991668;28;20479;-57
2022/04/05 09:06:36;;;;;;;11.97;7.07;;;6.10;62.10;;;;;;5000799;28;20924;-57
2022/04/05 09:09:12;;;;;;;10.33;6.60;;;6.20;61.20;;;;;;5011126;28;20481;-58
2022/04/05 09:11:50;;;;;;;10.87;7.23;;;6.30;60.70;;;;;;5011708;28;20447;-57
2022/04/05 09:14:24;;;;;;;14.60;6.23;;;6.40;59.90;;;;;;4975120;28;20423;-58
2022/04/05 09:17:05;;;;;;;8.57;5.90;;;6.40;59.60;;;;;;5009104;28;20423;-58
2022/04/05 09:19:36;;;;;;;17.63;9.63;;;6.50;59.90;;;;;;5009232;28;20952;-56
2022/04/05 09:22:03;;;;;;;13.27;7.60;;;6.50;59.60;;;;;;5011007;28;20459;-57
2022/04/05 09:24:39;;;;;;;9.90;6.53;;;6.60;59.50;;;;;;5009310;28;20419;-58
2022/04/05 09:27:06;;;;;;;11.10;6.60;;;6.70;59.40;;;;;;5006715;28;21284;-57
2022/04/05 09:29:44;;;;;;;12.00;7.20;;;6.80;59.30;;;;;;5010850;28;20440;-57
2022/04/05 09:32:30;;;;;;;12.93;6.73;;;6.90;58.90;;;;;;5011672;28;20439;-57
2022/04/05 09:34:56;;;;;;;8.87;6.60;;;6.90;58.30;;;;;;5001332;28;20800;-58
2022/04/05 09:37:26;;;;;;;10.47;7.23;;;6.90;58.30;;;;;;5010687;28;20433;-58
2022/04/05 09:39:52;;;;;;;11.33;6.27;;;6.90;58.30;;;;;;4996509;28;21022;-59
2022/04/05 09:42:17;;;;;;;11.13;6.50;;;6.90;58.00;;;;;;5011875;28;20406;-58
2022/04/05 09:44:43;;;;;;;10.60;6.20;;;7.00;57.80;;;;;;4989563;28;20800;-58
2022/04/05 09:47:17;;;;;;;7.40;6.37;;;7.00;57.80;;;;;;5011782;28;20661;-58
2022/04/05 09:49:45;;;;;;;9.00;6.10;;;7.10;57.60;;;;;;5010730;28;20267;-58
2022/04/05 09:52:34;;;;;;;9.93;6.00;;;7.10;58.10;;;;;;4984174;28;20436;-58
2022/04/05 09:55:10;;;;;;;9.50;6.67;;;7.20;57.70;;;;;;4998553;28;20446;-57
2022/04/05 09:57:37;;;;;;;8.70;6.40;;;7.30;57.60;;;;;;5010380;28;20525;-58
2022/04/05 10:00:17;;;;;;;6.80;6.10;;;7.30;57.10;;;;;;5003735;28;20451;-58
2022/04/05 10:03:10;;;;;;;7.70;5.60;;;7.40;57.20;;;;;;4999235;28;20463;-58
2022/04/05 10:05:36;;;;;;;7.63;6.03;;;7.50;57.30;;;;;;5000981;28;20437;-57
2022/04/05 10:08:03;;;;;;;8.00;6.50;;;7.60;56.70;;;;;;4997244;28;20405;-57
2022/04/05 10:10:29;;;;;;;10.57;6.17;;;7.70;56.80;;;;;;4981461;28;20469;-60
2022/04/05 10:12:55;;;;;;;7.77;5.53;;;7.90;56.80;;;;;;5009962;28;20522;-57
2022/04/05 10:15:24;;;;;;;8.43;6.00;;;8.00;56.50;;;;;;4991248;28;20428;-57
2022/04/05 10:17:53;;;;;;;9.97;5.73;;;8.20;56.80;;;;;;4995908;28;20184;-57
2022/04/05 10:20:19;;;;;;;9.53;5.93;;;8.30;56.30;;;;;;4995489;28;20550;-57
2022/04/05 10:22:52;;;;;;;7.33;5.30;;;8.40;55.70;;;;;;5006460;28;20423;-57
2022/04/05 10:25:18;;;;;;;9.40;6.40;;;8.50;55.80;;;;;;5008779;28;20798;-58
2022/04/05 10:27:43;;;;;;;8.00;5.90;;;8.60;55.90;;;;;;5006103;28;20432;-57
2022/04/05 10:30:31;;;;;;;6.70;4.83;;;8.60;55.50;;;;;;4991122;28;20412;-57
2022/04/05 10:33:12;;;;;;;11.50;6.30;;;8.70;55.20;;;;;;4991245;28;20161;-58
2022/04/05 10:35:53;;;;;;;9.80;5.67;;;8.80;55.60;;;;;;5000967;28;20419;-57
2022/04/05 10:38:20;;;;;;;12.70;5.60;;;8.90;55.70;;;;;;4988926;28;20511;-57
2022/04/05 10:41:20;;;;;;;9.23;5.47;;;9.00;54.90;;;;;;4990472;28;20456;-58
2022/04/05 10:44:07;;;;;;;9.13;5.50;;;9.10;54.70;;;;;;4993471;28;20916;-57
2022/04/05 10:46:41;;;;;;;8.30;5.73;;;9.10;54.80;;;;;;4990887;28;20434;-57
2022/04/05 10:49:07;;;;;;;11.70;5.70;;;9.10;54.90;;;;;;5010264;28;20447;-57
2022/04/05 10:52:04;;;;;;;6.60;4.93;;;9.10;55.20;;;;;;5001319;28;20916;-57
2022/04/05 10:54:37;;;;;;;5.47;4.70;;;9.10;55.40;;;;;;4993796;28;20505;-58
2022/04/05 10:57:32;;;;;;;8.03;4.77;;;9.10;55.30;;;;;;5008929;28;20518;-57
2022/04/05 11:00:10;;;;;;;8.20;5.10;;;9.10;55.80;;;;;;5009939;28;20594;-57
2022/04/05 11:02:47;;;;;;;7.63;4.90;;;9.10;55.20;;;;;;4996725;28;21054;-58
2022/04/05 11:05:18;;;;;;;7.50;5.17;;;9.10;55.40;;;;;;4996194;28;20438;-59
2022/04/05 11:08:01;;;;;;;7.73;4.90;;;9.10;55.80;;;;;;4999458;28;20443;-58
2022/04/05 11:10:36;;;;;;;6.13;5.27;;;9.10;55.90;;;;;;5001855;28;20463;-58
2022/04/05 11:13:04;;;;;;;6.00;4.23;;;9.10;56.00;;;;;;5000758;28;20526;-57
2022/04/05 11:15:42;;;;;;;7.60;5.37;;;9.20;55.80;;;;;;4985517;28;20542;-58
2022/04/05 11:18:09;;;;;;;7.67;5.20;;;9.20;56.00;;;;;;5000901;28;20882;-59
2022/04/05 11:20:36;;;;;;;6.30;4.83;;;9.30;55.70;;;;;;5001393;28;20561;-59
2022/04/05 11:23:02;;;;;;;7.93;4.90;;;9.40;55.80;;;;;;4996769;28;20440;-58
2022/04/05 11:25:30;;;;;;;7.50;4.47;;;9.50;55.80;;;;;;5001771;28;20428;-57
2022/04/05 11:28:08;;;;;;;7.50;4.80;;;9.60;55.30;;;;;;4969421;28;20271;-58
2022/04/05 11:30:37;;;;;;;9.20;5.00;;;9.60;55.00;;;;;;4999494;28;20451;-58
2022/04/05 11:33:20;;;;;;;6.67;5.10;;;9.50;55.20;;;;;;4998618;28;20546;-58
2022/04/05 11:35:55;;;;;;;7.27;5.07;;;9.50;55.40;;;;;;4994870;28;20431;-55
2022/04/05 11:38:21;;;;;;;5.57;4.97;;;9.50;55.40;;;;;;5000938;28;20500;-59
2022/04/05 11:40:49;;;;;;;11.20;5.03;;;9.50;55.40;;;;;;5000298;28;20991;-55
2022/04/05 11:43:27;;;;;;;11.70;5.17;;;9.50;55.60;;;;;;5001265;28;20184;-57
2022/04/05 11:45:54;;;;;;;6.03;5.40;;;9.50;55.50;;;;;;4998456;28;20517;-54
2022/04/05 11:48:22;;;;;;;6.17;4.60;;;9.50;55.80;;;;;;4998550;28;20454;-58
2022/04/05 11:50:49;;;;;;;10.63;5.20;;;9.50;55.50;;;;;;4997571;28;20458;-53
2022/04/05 11:53:22;;;;;;;10.80;6.10;;;9.50;55.10;;;;;;4978378;28;20443;-56
2022/04/05 11:56:13;;;;;;;8.00;4.90;;;9.50;55.30;;;;;;4992299;28;20434;-56
2022/04/05 11:58:46;;;;;;;10.30;5.63;;;9.50;55.60;;;;;;4998927;28;20439;-54
2022/04/05 12:01:13;;;;;;;13.90;5.77;;;9.50;56.20;;;;;;4993208;28;20471;-55
2022/04/05 12:03:58;;;;;;;6.73;5.23;;;9.60;56.00;;;;;;4997260;28;20509;-55
2022/04/05 12:06:30;;;;;;;8.17;5.03;;;9.60;55.40;;;;;;4996081;28;20438;-59
2022/04/05 12:08:58;;;;;;;7.70;5.00;;;9.70;55.50;;;;;;4995512;28;20518;-58
2022/04/05 12:11:26;;;;;;;8.20;5.50;;;9.70;55.50;;;;;;4985051;28;20892;-58
2022/04/05 12:13:54;;;;;;;10.40;5.50;;;9.70;55.70;;;;;;4998099;28;20509;-58
2022/04/05 12:16:22;;;;;;;7.67;5.17;;;9.70;55.90;;;;;;5001353;28;20447;-58
2022/04/05 12:18:48;;;;;;;9.17;5.33;;;9.70;56.10;;;;;;5000239;28;20546;-58
2022/04/05 12:21:14;;;;;;;8.77;5.60;;;9.70;56.20;;;;;;5004676;28;20479;-57
2022/04/05 12:23:41;;;;;;;15.87;5.90;;;9.60;56.20;;;;;;4993565;28;20446;-59
2022/04/05 12:26:14;;;;;;;7.50;4.90;;;9.60;56.20;;;;;;5001511;28;20235;-59
2022/04/05 12:28:45;;;;;;;10.40;5.27;;;9.60;56.40;;;;;;5003619;28;20531;-58
2022/04/05 12:31:22;;;;;;;8.27;4.80;;;9.60;56.70;;;;;;5002302;28;20485;-58
2022/04/05 12:33:56;;;;;;;10.47;4.93;;;9.50;57.00;;;;;;5003419;28;21313;-59
2022/04/05 12:36:23;;;;;;;9.17;5.37;;;9.50;57.30;;;;;;4999461;28;20442;-59
2022/04/05 12:38:49;;;;;;;10.43;5.17;;;9.50;57.40;;;;;;4984662;28;20445;-59
2022/04/05 12:41:16;;;;;;;9.90;6.00;;;9.50;57.60;;;;;;5002735;28;20509;-59
2022/04/05 12:43:43;;;;;;;5.83;4.60;;;9.50;57.70;;;;;;5001201;28;21286;-59
2022/04/05 12:46:13;;;;;;;8.00;6.13;;;9.50;57.90;;;;;;5001044;28;20543;-59
2022/04/05 12:48:41;;;;;;;5.70;4.67;;;9.50;58.10;;;;;;5001822;28;20438;-59
2022/04/05 12:51:07;;;;;;;6.47;4.67;;;9.50;58.50;;;;;;5001517;28;20463;-59
2022/04/05 12:53:37;;;;;;;5.60;4.10;;;9.50;58.50;;;;;;5004991;28;20522;-58
2022/04/05 12:56:09;;;;;;;6.00;4.40;;;9.50;58.70;;;;;;5004323;28;20439;-59